createdAt,value
2023-03-02T00:07:46.244Z,179.20
2023-03-02T00:17:53.515Z,161.30
2023-03-02T00:28:00.770Z,152.80
2023-03-02T00:38:07.514Z,195.60
2023-03-02T00:48:14.577Z,201.30
2023-03-02T00:58:21.630Z,187.60
2023-03-02T01:08:28.783Z,213.10
2023-03-02T01:18:38.900Z,245.50
2023-03-02T01:28:46.294Z,287.30
2023-03-02T01:38:54.475Z,320.30
2023-03-02T01:49:05.410Z,316.30
2023-03-02T01:59:10.045Z,318.70
2023-03-02T02:09:19.542Z,295.50
2023-03-02T02:19:28.250Z,399.90
2023-03-02T02:29:40.165Z,410.10
2023-03-02T02:39:48.556Z,379.10
2023-03-02T02:49:55.845Z,285.40
2023-03-02T03:00:06.724Z,377.60
2023-03-02T03:10:12.035Z,362.30
2023-03-02T03:20:20.642Z,321.20
2023-03-02T03:30:27.887Z,305.60
2023-03-02T03:40:36.028Z,271.00
2023-03-02T03:50:43.556Z,233.70
2023-03-02T04:00:49.688Z,211.90
2023-03-02T04:10:57.087Z,297.10
2023-03-02T04:21:04.231Z,423.70
2023-03-02T04:31:11.958Z,346.50
2023-03-02T04:41:19.663Z,336.60
2023-03-02T04:51:30.145Z,322.80
2023-03-02T05:01:37.612Z,294.50
2023-03-02T05:11:45.028Z,289.50
2023-03-02T05:21:51.976Z,272.80
2023-03-02T05:31:59.222Z,268.70
2023-03-02T05:42:06.136Z,320.60
2023-03-02T05:52:13.283Z,367.10
2023-03-02T06:02:20.639Z,417.50
2023-03-02T06:12:28.531Z,466.50
2023-03-02T06:22:35.645Z,484.80
2023-03-02T06:32:43.473Z,443.10
2023-03-02T06:42:50.710Z,383.40
2023-03-02T07:03:04.919Z,322.30
2023-03-02T07:13:12.718Z,360.10
2023-03-02T07:23:24.800Z,408.10
2023-03-02T07:33:32.280Z,298.30
2023-03-02T07:43:40.197Z,247.90
2023-03-02T07:53:46.693Z,190.50
2023-03-02T08:03:54.013Z,137.30
2023-03-02T08:14:02.655Z,117.90
2023-03-02T08:24:07.596Z,126.20
2023-03-02T08:34:14.753Z,119.00
2023-03-02T08:44:22.394Z,99.60
2023-03-02T08:54:29.599Z,64.30
2023-03-02T09:04:36.407Z,48.50
2023-03-02T09:14:43.584Z,46.00
2023-03-02T09:24:50.983Z,61.10
2023-03-02T09:34:58.141Z,44.30
2023-03-02T09:45:13.916Z,49.90
2023-03-02T09:55:20.980Z,46.70
2023-03-02T10:05:26.117Z,59.20
2023-03-02T10:15:32.415Z,46.50
2023-03-02T10:25:41.443Z,61.20
2023-03-02T10:35:48.766Z,66.10
2023-03-02T10:46:01.978Z,72.30
2023-03-02T10:56:06.901Z,64.90
2023-03-02T11:06:12.529Z,56.10
2023-03-02T11:16:25.249Z,60.30
2023-03-02T11:26:35.577Z,57.90
2023-03-02T11:36:45.647Z,61.20
2023-03-02T11:46:53.756Z,62.00
2023-03-02T11:57:01.162Z,56.80
2023-03-02T12:07:18.935Z,54.80
2023-03-02T12:17:24.356Z,57.00
2023-03-02T12:27:36.109Z,58.50
2023-03-02T12:37:42.857Z,57.50
2023-03-02T12:47:58.316Z,55.70
2023-03-02T12:58:07.418Z,51.70
2023-03-02T13:08:17.671Z,52.30
2023-03-02T13:18:24.686Z,48.70
2023-03-02T13:28:34.909Z,43.90
2023-03-02T13:38:50.108Z,45.60
2023-03-02T13:49:09.245Z,48.20
2023-03-02T13:59:20.117Z,41.30
2023-03-02T14:09:27.386Z,43.50
2023-03-02T14:19:34.713Z,51.80
2023-03-02T14:29:41.834Z,47.30
2023-03-02T14:39:52.366Z,38.90
2023-03-02T14:50:01.267Z,42.00
2023-03-02T15:00:15.503Z,41.40
2023-03-02T15:10:25.302Z,39.50
2023-03-02T15:20:32.205Z,48.80
2023-03-02T15:30:38.617Z,33.20
2023-03-02T15:40:46.376Z,45.90
2023-03-02T15:50:57.698Z,49.20
2023-03-02T16:01:08.084Z,54.50
2023-03-02T16:11:18.721Z,47.10
2023-03-02T16:21:26.102Z,34.50
2023-03-02T16:31:37.817Z,41.50
2023-03-02T16:41:46.411Z,60.50
2023-03-02T16:51:58.400Z,59.30
2023-03-02T17:02:05.750Z,67.90
2023-03-02T17:12:12.993Z,48.10
2023-03-02T17:22:19.101Z,52.40
2023-03-02T17:32:26.576Z,75.60
2023-03-02T17:42:33.109Z,98.80
2023-03-02T17:52:40.698Z,117.10
2023-03-02T18:02:48.061Z,149.80
2023-03-02T18:12:54.833Z,167.30
2023-03-02T18:23:01.030Z,140.60
2023-03-02T18:33:08.500Z,135.20
2023-03-02T18:43:16.567Z,166.80
2023-03-02T18:53:22.783Z,181.30
2023-03-02T19:03:31.298Z,191.20
2023-03-02T19:13:38.860Z,192.80
2023-03-02T19:23:46.629Z,194.90
2023-03-02T19:34:18.889Z,209.90
2023-03-02T19:44:25.625Z,182.00
2023-03-02T19:54:33.014Z,188.60
2023-03-02T20:04:40.334Z,230.00
2023-03-02T20:14:47.279Z,265.60
2023-03-02T20:24:54.667Z,334.70
2023-03-02T20:35:03.490Z,282.40
2023-03-02T20:45:13.241Z,207.30
2023-03-02T20:55:21.067Z,164.00
2023-03-02T21:05:29.799Z,144.40
2023-03-02T21:15:38.196Z,196.50
2023-03-02T21:25:45.145Z,325.50
2023-03-02T21:35:52.182Z,376.00
2023-03-02T21:45:58.702Z,333.70
2023-03-02T21:56:05.326Z,315.90
2023-03-02T22:06:13.326Z,329.00
2023-03-02T22:16:22.206Z,246.90
2023-03-02T22:26:29.525Z,260.30
2023-03-02T22:36:37.865Z,229.30
2023-03-02T22:46:45.336Z,320.70
2023-03-02T22:56:52.043Z,359.10
2023-03-02T23:07:01.213Z,300.50
2023-03-02T23:17:09.102Z,322.40
2023-03-02T23:27:16.208Z,327.00
2023-03-02T23:37:23.525Z,283.60
2023-03-02T23:47:30.888Z,267.50
2023-03-02T23:57:38.118Z,243.70
